createdAt,value
2022-09-12T00:04:28.700Z,13.71
2022-09-12T00:09:30.584Z,13.66
2022-09-12T00:14:31.254Z,13.65
2022-09-12T00:19:31.982Z,13.69
2022-09-12T00:24:34.323Z,13.77
2022-09-12T00:29:34.907Z,13.80
2022-09-12T00:34:37.146Z,13.87
2022-09-12T00:39:39.166Z,13.91
2022-09-12T00:44:45.725Z,13.85
2022-09-12T00:49:50.803Z,13.81
2022-09-12T00:54:58.234Z,13.68
2022-09-12T01:00:02.767Z,13.64
2022-09-12T01:05:03.364Z,13.63
2022-09-12T01:10:06.453Z,13.51
2022-09-12T01:15:07.552Z,13.48
2022-09-12T01:20:28.357Z,13.36
2022-09-12T01:25:36.348Z,13.40
2022-09-12T01:30:49.137Z,13.28
2022-09-12T01:36:03.644Z,13.31
2022-09-12T01:41:12.711Z,13.32
2022-09-12T01:46:18.475Z,13.38
2022-09-12T01:51:26.234Z,13.36
2022-09-12T01:56:29.691Z,13.40
2022-09-12T02:01:34.065Z,13.42
2022-09-12T02:06:39.477Z,13.41
2022-09-12T02:11:45.333Z,13.42
2022-09-12T02:16:50.892Z,13.37
2022-09-12T02:21:55.273Z,13.45
2022-09-12T02:26:58.817Z,13.49
2022-09-12T02:32:05.780Z,13.45
2022-09-12T02:37:14.084Z,13.34
2022-09-12T02:42:14.825Z,13.29
2022-09-12T02:47:22.912Z,13.33
2022-09-12T02:52:23.741Z,13.24
2022-09-12T02:57:24.311Z,13.26
2022-09-12T03:02:33.273Z,13.24
2022-09-12T03:07:50.693Z,13.21
2022-09-12T03:13:02.285Z,13.29
2022-09-12T03:18:21.006Z,13.28
2022-09-12T03:23:30.246Z,13.25
2022-09-12T03:28:32.318Z,13.27
2022-09-12T03:33:34.339Z,13.36
2022-09-12T03:38:34.889Z,13.40
2022-09-12T03:43:35.489Z,13.39
2022-09-12T03:48:37.504Z,13.29
2022-09-12T03:53:38.287Z,13.31
2022-09-12T03:58:39.470Z,13.30
2022-09-12T04:03:42.093Z,13.37
2022-09-12T04:08:43.723Z,13.32
2022-09-12T04:13:46.187Z,13.35
2022-09-12T04:18:48.394Z,13.31
2022-09-12T04:23:49.541Z,13.33
2022-09-12T04:28:54.657Z,13.36
2022-09-12T04:33:57.885Z,13.31
2022-09-12T04:39:00.273Z,13.35
2022-09-12T04:44:03.147Z,13.35
2022-09-12T04:49:05.895Z,13.30
2022-09-12T04:54:09.003Z,13.31
2022-09-12T04:59:11.342Z,13.36
2022-09-12T05:04:14.381Z,13.40
2022-09-12T05:09:15.854Z,13.40
2022-09-12T05:14:16.445Z,13.47
2022-09-12T05:19:19.392Z,13.63
2022-09-12T05:24:20.094Z,13.70
2022-09-12T05:29:20.681Z,13.68
2022-09-12T05:34:23.385Z,13.79
2022-09-12T05:39:24.617Z,13.81
2022-09-12T05:44:25.566Z,13.82
2022-09-12T05:49:27.612Z,13.83
2022-09-12T05:54:31.490Z,14.00
2022-09-12T05:59:32.864Z,14.12
2022-09-12T06:04:34.766Z,14.12
2022-09-12T06:09:35.462Z,14.22
2022-09-12T06:14:36.247Z,14.46
2022-09-12T06:19:38.123Z,14.63
2022-09-12T06:24:38.750Z,14.67
2022-09-12T06:29:39.464Z,14.77
2022-09-12T06:34:41.625Z,14.89
2022-09-12T06:39:42.245Z,14.99
2022-09-12T06:44:42.860Z,14.84
2022-09-12T06:49:44.773Z,15.03
2022-09-12T06:54:46.366Z,15.17
2022-09-12T06:59:46.925Z,15.40
2022-09-12T07:04:49.995Z,15.48
2022-09-12T07:09:50.598Z,15.49
2022-09-12T07:14:51.162Z,15.48
2022-09-12T07:19:53.072Z,15.46
2022-09-12T07:24:54.083Z,15.25
2022-09-12T07:29:55.013Z,15.31
2022-09-12T07:34:56.916Z,15.33
2022-09-12T07:39:57.743Z,15.29
2022-09-12T07:44:58.399Z,15.44
2022-09-12T07:50:00.357Z,15.77
2022-09-12T07:55:00.984Z,15.94
2022-09-12T08:00:01.604Z,16.32
2022-09-12T08:05:03.655Z,16.37
2022-09-12T08:10:04.674Z,16.33
2022-09-12T08:15:06.282Z,16.29
2022-09-12T08:20:09.281Z,16.63
2022-09-12T08:25:10.493Z,16.42
2022-09-12T08:30:12.215Z,16.69
2022-09-12T08:35:15.092Z,16.67
2022-09-12T08:40:18.981Z,16.81
2022-09-12T08:45:24.240Z,16.49
2022-09-12T08:50:26.258Z,16.42
2022-09-12T08:55:32.124Z,16.86
2022-09-12T09:00:42.272Z,17.07
2022-09-12T09:05:51.278Z,16.68
2022-09-12T09:10:58.402Z,16.75
2022-09-12T09:16:09.918Z,17.02
2022-09-12T09:21:23.477Z,17.07
2022-09-12T09:26:29.105Z,17.22
2022-09-12T09:31:34.368Z,17.37
2022-09-12T09:36:45.547Z,16.80
2022-09-12T09:41:53.735Z,17.67
2022-09-12T09:46:56.916Z,18.07
2022-09-12T09:52:00.978Z,18.13
2022-09-12T09:57:01.659Z,18.68
2022-09-12T10:02:04.891Z,18.61
2022-09-12T10:07:07.448Z,19.12
2022-09-12T10:12:22.085Z,18.45
2022-09-12T10:17:28.699Z,18.74
2022-09-12T10:22:33.885Z,18.48
2022-09-12T10:27:36.635Z,18.23
2022-09-12T10:32:42.206Z,18.70
2022-09-12T10:37:53.688Z,18.98
2022-09-12T10:42:56.381Z,19.01
2022-09-12T10:48:02.084Z,19.58
2022-09-12T10:53:20.725Z,19.52
2022-09-12T10:58:46.072Z,20.05
2022-09-12T11:04:05.425Z,19.95
2022-09-12T11:09:16.814Z,19.27
2022-09-12T11:14:28.950Z,19.42
2022-09-12T11:19:56.082Z,19.73
2022-09-12T11:25:14.500Z,20.16
2022-09-12T11:30:17.463Z,19.58
2022-09-12T11:35:24.485Z,20.44
2022-09-12T11:40:33.252Z,20.68
2022-09-12T11:45:38.457Z,20.71
2022-09-12T11:50:39.030Z,20.66
2022-09-12T11:55:51.953Z,20.31
2022-09-12T12:00:56.304Z,19.74
2022-09-12T12:06:04.219Z,19.58
2022-09-12T12:11:08.788Z,19.87
2022-09-12T12:16:15.516Z,19.73
2022-09-12T12:21:40.586Z,19.59
2022-09-12T12:27:01.750Z,19.70
2022-09-12T12:32:21.200Z,20.21
2022-09-12T12:37:55.846Z,20.87
2022-09-12T12:43:20.306Z,21.35
2022-09-12T12:48:22.204Z,21.03
2022-09-12T12:53:27.685Z,21.19
2022-09-12T12:58:36.297Z,20.78
2022-09-12T13:03:38.766Z,20.67
2022-09-12T13:08:41.419Z,20.53
2022-09-12T13:13:51.251Z,20.37
2022-09-12T13:18:52.772Z,20.56
2022-09-12T13:24:02.097Z,20.46
2022-09-12T13:29:17.270Z,20.57
2022-09-12T13:34:21.427Z,20.54
2022-09-12T13:39:27.414Z,20.69
2022-09-12T13:44:30.565Z,20.68
2022-09-12T13:49:34.966Z,20.82
2022-09-12T13:54:39.849Z,20.96
2022-09-12T13:59:42.674Z,20.71
2022-09-12T14:05:05.813Z,20.84
2022-09-12T14:10:07.507Z,20.37
2022-09-12T14:15:18.112Z,20.80
2022-09-12T14:20:20.642Z,20.31
2022-09-12T14:25:25.134Z,20.41
2022-09-12T14:30:30.390Z,20.43
2022-09-12T14:35:32.487Z,20.69
2022-09-12T14:40:33.473Z,20.91
2022-09-12T14:45:35.446Z,20.69
2022-09-12T14:50:37.182Z,20.62
2022-09-12T14:55:45.172Z,20.51
2022-09-12T15:00:59.953Z,20.18
2022-09-12T15:06:02.853Z,20.15
2022-09-12T15:11:03.592Z,20.02
2022-09-12T15:16:05.800Z,20.05
2022-09-12T15:21:08.849Z,19.92
2022-09-12T15:26:12.607Z,20.00
2022-09-12T15:31:23.229Z,20.01
2022-09-12T15:36:31.351Z,19.96
2022-09-12T15:41:35.573Z,19.93
2022-09-12T15:46:37.671Z,19.78
2022-09-12T15:51:38.458Z,19.62
2022-09-12T15:56:39.049Z,19.53
2022-09-12T16:01:41.246Z,19.37
2022-09-12T16:06:41.966Z,19.22
2022-09-12T16:11:42.630Z,19.06
2022-09-12T16:16:46.195Z,18.97
2022-09-12T16:21:46.789Z,18.76
2022-09-12T16:26:47.370Z,18.63
2022-09-12T16:31:49.316Z,18.45
2022-09-12T16:36:49.997Z,18.40
2022-09-12T16:41:50.588Z,18.29
2022-09-12T16:46:52.900Z,18.10
2022-09-12T16:51:53.457Z,17.97
2022-09-12T16:56:54.125Z,17.83
2022-09-12T17:01:56.050Z,17.65
2022-09-12T17:06:59.383Z,17.63
2022-09-12T17:12:01.419Z,17.49
2022-09-12T17:17:04.742Z,17.40
2022-09-12T17:22:05.407Z,17.17
2022-09-12T17:27:06.334Z,17.04
2022-09-12T17:32:08.265Z,16.93
2022-09-12T17:37:09.563Z,16.81
2022-09-12T17:42:10.140Z,16.74
2022-09-12T17:47:12.025Z,16.61
2022-09-12T17:52:13.248Z,16.49
2022-09-12T17:57:14.361Z,16.47
2022-09-12T18:02:16.738Z,16.37
2022-09-12T18:07:19.881Z,16.36
2022-09-12T18:12:20.859Z,16.31
2022-09-12T18:17:23.868Z,16.22
2022-09-12T18:22:24.492Z,16.12
2022-09-12T18:27:25.404Z,16.08
2022-09-12T18:32:27.357Z,16.04
2022-09-12T18:37:28.064Z,15.93
2022-09-12T18:42:28.732Z,15.87
2022-09-12T18:47:30.713Z,15.69
2022-09-12T18:52:31.332Z,15.63
2022-09-12T18:57:34.973Z,15.44
2022-09-12T19:02:36.943Z,15.32
2022-09-12T19:07:38.818Z,15.27
2022-09-12T19:12:39.437Z,15.14
2022-09-12T19:17:41.418Z,15.07
2022-09-12T19:22:42.000Z,14.94
2022-09-12T19:27:42.610Z,14.88
2022-09-12T19:32:45.319Z,14.74
2022-09-12T19:37:46.473Z,14.74
2022-09-12T19:42:47.048Z,14.70
2022-09-12T19:47:49.078Z,14.53
2022-09-12T19:52:49.655Z,14.51
2022-09-12T19:57:50.267Z,14.40
2022-09-12T20:02:52.656Z,14.30
2022-09-12T20:07:53.425Z,14.27
2022-09-12T20:12:53.985Z,14.19
2022-09-12T20:17:56.949Z,14.08
2022-09-12T20:22:57.534Z,14.05
2022-09-12T20:28:00.155Z,14.03
2022-09-12T20:33:02.397Z,13.95
2022-09-12T20:38:03.000Z,13.88
2022-09-12T20:43:03.648Z,13.83
2022-09-12T20:48:05.630Z,13.72
2022-09-12T20:53:06.244Z,13.73
2022-09-12T20:58:06.881Z,13.66
2022-09-12T21:03:09.196Z,13.65
2022-09-12T21:08:10.064Z,13.59
2022-09-12T21:13:11.070Z,13.58
2022-09-12T21:18:12.957Z,13.48
2022-09-12T21:23:13.526Z,13.43
2022-09-12T21:28:14.271Z,13.36
2022-09-12T21:33:16.346Z,13.36
2022-09-12T21:38:17.755Z,13.32
2022-09-12T21:43:18.319Z,13.30
2022-09-12T21:48:20.204Z,13.35
2022-09-12T21:53:20.764Z,13.21
2022-09-12T21:58:21.354Z,13.21
2022-09-12T22:03:23.265Z,13.17
2022-09-12T22:08:23.818Z,13.19
2022-09-12T22:13:24.385Z,13.18
2022-09-12T22:18:26.299Z,13.10
2022-09-12T22:23:43.632Z,13.06
2022-09-12T22:28:44.744Z,12.98
2022-09-12T22:33:46.656Z,12.94
2022-09-12T22:38:47.287Z,12.87
2022-09-12T22:43:48.015Z,12.83
2022-09-12T22:48:49.907Z,12.66
2022-09-12T22:53:51.442Z,12.67
2022-09-12T22:58:52.063Z,12.68
2022-09-12T23:03:54.123Z,12.64
2022-09-12T23:08:56.111Z,12.55
2022-09-12T23:13:56.727Z,12.57
2022-09-12T23:18:59.107Z,12.56
2022-09-12T23:23:59.655Z,12.46
2022-09-12T23:29:02.455Z,12.53
2022-09-12T23:34:06.782Z,12.34
2022-09-12T23:39:07.378Z,12.36
2022-09-12T23:44:08.090Z,12.32
2022-09-12T23:49:10.134Z,12.28
2022-09-12T23:54:10.681Z,12.22
2022-09-12T23:59:11.224Z,12.12
